Wetterdaten: Woche 03.10.16 - 09.10.16 (KW40)
Datum Zeit Temp. A. Feuchte A. Luftdruck Regen Wind Richtung Taupunkt Windchill Windben
03.10.2016 00:00 9,4 C 82 % 1020,9 hPa 0,0 l/m 2,4 km/h (1 Bft) O 6,5 C 9,4 C 6,5 km/h (2 Bft)
03.10.2016 01:00 8,9 C 88 % 1021,3 hPa 0,0 l/m 1,9 km/h (1 Bft) O 7,0 C 8,9 C 5,2 km/h (1 Bft)
03.10.2016 02:00 8,5 C 92 % 1021,8 hPa 0,3 l/m 1,6 km/h (1 Bft) O-NO 7,3 C 8,5 C 4,3 km/h (1 Bft)
03.10.2016 03:00 8,3 C 94 % 1022,1 hPa 0,0 l/m 2,0 km/h (1 Bft) NO 7,4 C 8,3 C 6,0 km/h (2 Bft)
03.10.2016 04:00 8,2 C 94 % 1022,3 hPa 0,0 l/m 1,4 km/h (1 Bft) O 7,3 C 8,2 C 4,4 km/h (1 Bft)
03.10.2016 05:00 8,1 C 94 % 1022,9 hPa 0,0 l/m 1,0 km/h (0 Bft) O 7,2 C 8,1 C 3,3 km/h (1 Bft)
03.10.2016 06:00 8,2 C 93 % 1023,3 hPa 0,0 l/m 1,4 km/h (1 Bft) O-SO 7,2 C 8,2 C 3,2 km/h (1 Bft)
03.10.2016 07:00 8,4 C 92 % 1023,9 hPa 0,0 l/m 1,6 km/h (1 Bft) O 7,2 C 8,4 C 3,4 km/h (1 Bft)
03.10.2016 08:00 8,5 C 92 % 1024,2 hPa 0,0 l/m 2,4 km/h (1 Bft) O-NO 7,2 C 8,5 C 4,7 km/h (1 Bft)
03.10.2016 09:00 9,4 C 89 % 1025,0 hPa 0,0 l/m 2,7 km/h (1 Bft) O 7,6 C 9,4 C 4,8 km/h (1 Bft)
03.10.2016 10:00 11,3 C 80 % 1025,4 hPa 0,0 l/m 3,9 km/h (1 Bft) NO 7,9 C 11,2 C 8,1 km/h (2 Bft)
03.10.2016 11:00 12,3 C 72 % 1025,6 hPa 0,0 l/m 5,4 km/h (2 Bft) O-NO 7,4 C 12,1 C 11,5 km/h (2 Bft)
03.10.2016 12:00 13,3 C 67 % 1025,4 hPa 0,0 l/m 4,5 km/h (1 Bft) NO 7,3 C 13,3 C 10,3 km/h (2 Bft)
03.10.2016 13:00 13,2 C 63 % 1025,4 hPa 0,0 l/m 4,2 km/h (1 Bft) O 6,2 C 13,2 C 11,3 km/h (2 Bft)
03.10.2016 14:00 14,7 C 57 % 1025,3 hPa 0,0 l/m 5,3 km/h (1 Bft) O 6,3 C 14,7 C 14,6 km/h (3 Bft)
03.10.2016 15:00 14,1 C 58 % 1025,3 hPa 0,0 l/m 4,3 km/h (1 Bft) O-NO 6,0 C 14,1 C 12,4 km/h (2 Bft)
03.10.2016 16:00 13,5 C 58 % 1025,2 hPa 0,0 l/m 3,8 km/h (1 Bft) O-NO 5,4 C 13,5 C 10,5 km/h (2 Bft)
03.10.2016 17:00 12,8 C 63 % 1025,3 hPa 0,0 l/m 3,0 km/h (1 Bft) N 5,8 C 12,8 C 8,7 km/h (2 Bft)
03.10.2016 18:00 11,0 C 71 % 1025,6 hPa 0,0 l/m 1,7 km/h (1 Bft) N 5,9 C 11,0 C 3,9 km/h (1 Bft)
03.10.2016 19:00 9,8 C 78 % 1026,0 hPa 0,0 l/m 0,7 km/h (0 Bft) N 6,1 C 9,8 C 1,5 km/h (1 Bft)
03.10.2016 20:00 8,9 C 84 % 1026,2 hPa 0,0 l/m 0,3 km/h (0 Bft) SO 6,3 C 8,9 C 1,7 km/h (1 Bft)
03.10.2016 21:00 8,5 C 87 % 1026,4 hPa 0,0 l/m 0,1 km/h (0 Bft) SO 6,5 C 8,5 C 1,1 km/h (0 Bft)
03.10.2016 22:00 8,6 C 89 % 1026,6 hPa 0,0 l/m 0,1 km/h (0 Bft) SO 6,8 C 8,6 C 0,8 km/h (0 Bft)
03.10.2016 23:00 8,5 C 91 % 1026,8 hPa 0,5 l/m 0,2 km/h (0 Bft) SW 7,1 C 8,5 C 1,5 km/h (1 Bft)
04.10.2016 00:00 8,4 C 94 % 1026,8 hPa 0,0 l/m 0,2 km/h (0 Bft) SW 7,4 C 8,4 C 1,5 km/h (1 Bft)
04.10.2016 01:00 8,3 C 94 % 1026,8 hPa 0,0 l/m 0,2 km/h (0 Bft) SW 7,4 C 8,3 C 1,3 km/h (1 Bft)
04.10.2016 02:00 7,8 C 95 % 1027,0 hPa 0,0 l/m 0,0 km/h (0 Bft) SW 7,1 C 7,8 C 0,5 km/h (0 Bft)
04.10.2016 03:00 7,5 C 96 % 1027,1 hPa 0,0 l/m 0,2 km/h (0 Bft) SW 6,9 C 7,5 C 0,8 km/h (0 Bft)
04.10.2016 04:00 7,4 C 96 % 1027,1 hPa 0,0 l/m 0,4 km/h (0 Bft) NW 6,9 C 7,4 C 2,0 km/h (1 Bft)
04.10.2016 05:00 7,6 C 96 % 1027,3 hPa 0,0 l/m 1,0 km/h (0 Bft) W 7,0 C 7,6 C 3,6 km/h (1 Bft)
04.10.2016 06:00 7,3 C 94 % 1027,6 hPa 0,0 l/m 2,2 km/h (1 Bft) NW 6,5 C 7,3 C 6,8 km/h (2 Bft)
04.10.2016 07:00 7,3 C 94 % 1027,9 hPa 0,0 l/m 1,2 km/h (1 Bft) S-SW 6,4 C 7,3 C 4,7 km/h (1 Bft)
04.10.2016 08:00 7,2 C 94 % 1028,5 hPa 0,0 l/m 1,7 km/h (1 Bft) W-NW 6,2 C 7,2 C 4,7 km/h (1 Bft)
04.10.2016 09:00 7,6 C 93 % 1028,7 hPa 0,0 l/m 1,6 km/h (1 Bft) W-NW 6,6 C 7,6 C 5,1 km/h (1 Bft)
04.10.2016 10:00 8,5 C 90 % 1029,1 hPa 0,0 l/m 2,8 km/h (1 Bft) W 7,0 C 8,5 C 6,8 km/h (2 Bft)
04.10.2016 11:00 9,4 C 86 % 1029,2 hPa 0,0 l/m 3,5 km/h (1 Bft) N 7,2 C 9,4 C 7,8 km/h (2 Bft)
04.10.2016 12:00 10,6 C 82 % 1029,2 hPa 0,0 l/m 3,9 km/h (1 Bft) N 7,6 C 10,6 C 6,9 km/h (2 Bft)
04.10.2016 13:00 11,8 C 78 % 1029,1 hPa 0,0 l/m 4,2 km/h (1 Bft) S-SW 8,0 C 11,8 C 8,6 km/h (2 Bft)
04.10.2016 14:00 11,7 C 77 % 1028,9 hPa 0,0 l/m 3,8 km/h (1 Bft) NW 7,8 C 11,7 C 7,4 km/h (2 Bft)
04.10.2016 15:00 12,2 C 75 % 1028,6 hPa 0,0 l/m 3,9 km/h (1 Bft) NW 7,9 C 12,2 C 7,7 km/h (2 Bft)
04.10.2016 16:00 13,0 C 72 % 1028,5 hPa 0,0 l/m 4,3 km/h (1 Bft) NW 8,2 C 13,0 C 10,7 km/h (2 Bft)
04.10.2016 17:00 11,1 C 82 % 1028,9 hPa 0,0 l/m 4,4 km/h (1 Bft) N 8,0 C 11,0 C 10,5 km/h (2 Bft)
04.10.2016 18:00 10,5 C 85 % 1029,1 hPa 0,0 l/m 2,6 km/h (1 Bft) N 8,1 C 10,5 C 6,2 km/h (2 Bft)
04.10.2016 19:00 10,3 C 87 % 1029,2 hPa 0,0 l/m 1,8 km/h (1 Bft) N 8,2 C 10,3 C 6,0 km/h (2 Bft)
04.10.2016 20:00 10,1 C 89 % 1029,3 hPa 0,0 l/m 3,2 km/h (1 Bft) N 8,3 C 10,1 C 9,4 km/h (2 Bft)
04.10.2016 21:00 9,2 C 91 % 1029,3 hPa 0,0 l/m 3,4 km/h (1 Bft) N 7,7 C 9,2 C 9,4 km/h (2 Bft)
04.10.2016 22:00 9,0 C 90 % 1029,1 hPa 0,0 l/m 3,7 km/h (1 Bft) N 7,4 C 9,0 C 11,3 km/h (2 Bft)
04.10.2016 23:00 8,8 C 86 % 1028,9 hPa 0,0 l/m 3,8 km/h (1 Bft) W 6,6 C 8,8 C 9,5 km/h (2 Bft)
05.10.2016 00:00 8,4 C 84 % 1028,7 hPa 0,0 l/m 3,9 km/h (1 Bft) N 5,9 C 8,4 C 8,2 km/h (2 Bft)
05.10.2016 01:00 8,2 C 83 % 1028,5 hPa 0,0 l/m 3,0 km/h (1 Bft) N 5,6 C 8,2 C 7,8 km/h (2 Bft)
05.10.2016 02:00 7,8 C 84 % 1028,1 hPa 0,0 l/m 2,3 km/h (1 Bft) S-SW 5,4 C 7,8 C 7,1 km/h (2 Bft)
05.10.2016 03:00 6,6 C 87 % 1027,7 hPa 0,0 l/m 0,7 km/h (0 Bft) S-SW 4,6 C 6,6 C 3,3 km/h (1 Bft)
05.10.2016 04:00 5,8 C 90 % 1027,7 hPa 0,0 l/m 1,5 km/h (1 Bft) SW 4,2 C 5,8 C 5,2 km/h (1 Bft)
05.10.2016 05:00 4,9 C 90 % 1027,5 hPa 0,0 l/m 0,7 km/h (0 Bft) SW 3,4 C 4,9 C 3,2 km/h (1 Bft)
05.10.2016 06:00 4,2 C 91 % 1027,4 hPa 0,0 l/m 0,8 km/h (0 Bft) SW 2,9 C 4,2 C 3,7 km/h (1 Bft)
05.10.2016 07:00 3,9 C 91 % 1027,4 hPa 0,0 l/m 2,9 km/h (1 Bft) S-SW 2,6 C 3,9 C 8,1 km/h (2 Bft)
05.10.2016 08:00 4,8 C 88 % 1027,5 hPa 0,0 l/m 3,4 km/h (1 Bft) W-SW 3,0 C 4,8 C 9,9 km/h (2 Bft)
05.10.2016 09:00 6,7 C 82 % 1027,6 hPa 0,0 l/m 3,5 km/h (1 Bft) NW 3,8 C 6,7 C 10,3 km/h (2 Bft)
05.10.2016 10:00 8,4 C 75 % 1027,4 hPa 0,0 l/m 5,0 km/h (1 Bft) N-NW 4,1 C 8,3 C 13,8 km/h (3 Bft)
05.10.2016 11:00 10,1 C 63 % 1027,0 hPa 0,0 l/m 7,0 km/h (2 Bft) S-SW 3,3 C 9,2 C 16,5 km/h (3 Bft)
05.10.2016 12:00 8,9 C 64 % 1027,0 hPa 0,0 l/m 5,7 km/h (2 Bft) NW 2,6 C 8,8 C 14,7 km/h (3 Bft)
05.10.2016 13:00 9,4 C 60 % 1026,9 hPa 0,0 l/m 6,2 km/h (2 Bft) W-SW 2,0 C 9,1 C 16,1 km/h (3 Bft)
05.10.2016 14:00 9,8 C 56 % 1026,4 hPa 0,0 l/m 5,9 km/h (2 Bft) N-NW 1,4 C 9,6 C 16,4 km/h (3 Bft)
05.10.2016 15:00 11,5 C 50 % 1025,8 hPa 0,0 l/m 5,1 km/h (1 Bft) NW 1,4 C 11,4 C 15,8 km/h (3 Bft)
05.10.2016 16:00 11,1 C 49 % 1025,3 hPa 0,0 l/m 5,5 km/h (2 Bft) S 0,7 C 11,0 C 15,6 km/h (3 Bft)
05.10.2016 17:00 10,0 C 51 % 1025,1 hPa 0,0 l/m 5,7 km/h (2 Bft) W-NW 0,3 C 9,7 C 14,5 km/h (3 Bft)
05.10.2016 18:00 8,8 C 57 % 1025,3 hPa 0,0 l/m 5,4 km/h (1 Bft) N 0,8 C 8,8 C 13,9 km/h (3 Bft)
05.10.2016 19:00 7,2 C 63 % 1025,5 hPa 0,0 l/m 3,6 km/h (1 Bft) W 0,5 C 7,2 C 10,7 km/h (2 Bft)
05.10.2016 20:00 6,1 C 70 % 1025,4 hPa 0,0 l/m 2,3 km/h (1 Bft) W 0,9 C 6,1 C 8,2 km/h (2 Bft)
05.10.2016 21:00 5,2 C 76 % 1025,3 hPa 0,0 l/m 2,3 km/h (1 Bft) W-SW 1,3 C 5,2 C 7,5 km/h (2 Bft)
05.10.2016 22:00 4,6 C 79 % 1024,7 hPa 0,0 l/m 2,2 km/h (1 Bft) W-SW 1,3 C 4,6 C 6,3 km/h (2 Bft)
05.10.2016 23:00 3,9 C 81 % 1024,3 hPa 0,0 l/m 1,2 km/h (1 Bft) W 1,0 C 3,9 C 3,8 km/h (1 Bft)
06.10.2016 00:00 3,1 C 84 % 1023,9 hPa 0,0 l/m 0,5 km/h (0 Bft) SW 0,7 C 3,1 C 2,6 km/h (1 Bft)
06.10.2016 01:00 1,9 C 89 % 1023,2 hPa 0,0 l/m 0,2 km/h (0 Bft) SW 0,2 C 1,9 C 1,5 km/h (1 Bft)
06.10.2016 02:00 0,8 C 92 % 1022,7 hPa 0,0 l/m 0,0 km/h (0 Bft) SW -0,4 C 0,8 C 1,1 km/h (0 Bft)
06.10.2016 03:00 1,1 C 95 % 1022,4 hPa 0,0 l/m 0,1 km/h (0 Bft) SW 0,3 C 1,1 C 0,8 km/h (0 Bft)
06.10.2016 04:00 2,4 C 94 % 1022,0 hPa 0,0 l/m 0,7 km/h (0 Bft) SW 1,6 C 2,4 C 2,7 km/h (1 Bft)
06.10.2016 05:00 3,8 C 91 % 1021,4 hPa 0,0 l/m 1,1 km/h (0 Bft) S-SW 2,6 C 3,8 C 4,0 km/h (1 Bft)
06.10.2016 06:00 4,2 C 91 % 1021,2 hPa 0,0 l/m 0,5 km/h (0 Bft) S-SO 2,9 C 4,2 C 1,8 km/h (1 Bft)
06.10.2016 07:00 4,4 C 91 % 1021,0 hPa 0,0 l/m 1,5 km/h (1 Bft) W-NW 3,1 C 4,4 C 5,6 km/h (2 Bft)
06.10.2016 08:00 4,6 C 91 % 1020,6 hPa 0,0 l/m 1,8 km/h (1 Bft) W 3,2 C 4,6 C 5,9 km/h (2 Bft)
06.10.2016 09:00 4,8 C 91 % 1020,2 hPa 0,0 l/m 1,9 km/h (1 Bft) NW 3,5 C 4,8 C 5,6 km/h (2 Bft)
06.10.2016 10:00 5,2 C 91 % 1020,0 hPa 0,0 l/m 2,8 km/h (1 Bft) W-NW 3,8 C 5,2 C 8,3 km/h (2 Bft)
06.10.2016 11:00 5,6 C 89 % 1019,8 hPa 0,0 l/m 2,3 km/h (1 Bft) NW 3,9 C 5,6 C 5,6 km/h (2 Bft)
06.10.2016 12:00 6,0 C 87 % 1019,8 hPa 0,0 l/m 2,8 km/h (1 Bft) W 4,0 C 6,0 C 5,3 km/h (1 Bft)
06.10.2016 13:00 6,3 C 86 % 1019,7 hPa 0,0 l/m 2,7 km/h (1 Bft) W-NW 4,1 C 6,3 C 5,6 km/h (2 Bft)
06.10.2016 14:00 6,5 C 85 % 1019,2 hPa 0,0 l/m 3,7 km/h (1 Bft) S-SW 4,2 C 6,5 C 10,4 km/h (2 Bft)
06.10.2016 15:00 6,8 C 85 % 1018,4 hPa 0,0 l/m 3,0 km/h (1 Bft) S-SW 4,4 C 6,8 C 9,8 km/h (2 Bft)
06.10.2016 16:00 6,8 C 86 % 1018,1 hPa 0,0 l/m 3,1 km/h (1 Bft) NW 4,5 C 6,8 C 9,3 km/h (2 Bft)
06.10.2016 17:00 6,8 C 86 % 1018,2 hPa 0,0 l/m 3,3 km/h (1 Bft) W 4,7 C 6,8 C 8,3 km/h (2 Bft)
06.10.2016 18:00 6,8 C 87 % 1018,4 hPa 0,0 l/m 3,2 km/h (1 Bft) NW 4,7 C 6,8 C 9,0 km/h (2 Bft)
06.10.2016 19:00 6,6 C 88 % 1018,6 hPa 0,0 l/m 2,0 km/h (1 Bft) SW 4,8 C 6,6 C 6,3 km/h (2 Bft)
06.10.2016 20:00 6,5 C 90 % 1018,6 hPa 0,0 l/m 1,8 km/h (1 Bft) S-SW 5,0 C 6,5 C 5,6 km/h (2 Bft)
06.10.2016 21:00 6,6 C 91 % 1018,4 hPa 0,0 l/m 1,9 km/h (1 Bft) SW 5,2 C 6,6 C 5,5 km/h (2 Bft)
06.10.2016 22:00 6,7 C 91 % 1018,2 hPa 0,0 l/m 2,3 km/h (1 Bft) W-SW 5,3 C 6,7 C 7,0 km/h (2 Bft)
06.10.2016 23:00 6,8 C 92 % 1018,1 hPa 0,0 l/m 2,1 km/h (1 Bft) W-NW 5,5 C 6,8 C 5,8 km/h (2 Bft)
07.10.2016 00:00 6,8 C 93 % 1018,0 hPa 0,0 l/m 1,9 km/h (1 Bft) S-SW 5,7 C 6,8 C 5,7 km/h (2 Bft)
07.10.2016 01:00 6,7 C 94 % 1017,6 hPa 0,0 l/m 1,7 km/h (1 Bft) SW 5,8 C 6,7 C 5,5 km/h (2 Bft)
07.10.2016 02:00 6,7 C 95 % 1017,5 hPa 0,0 l/m 1,5 km/h (1 Bft) SW 5,9 C 6,7 C 5,1 km/h (1 Bft)
07.10.2016 03:00 6,7 C 96 % 1017,3 hPa 0,0 l/m 1,3 km/h (1 Bft) W-NW 6,0 C 6,7 C 4,3 km/h (1 Bft)
07.10.2016 04:00 6,6 C 96 % 1017,0 hPa 0,0 l/m 1,1 km/h (1 Bft) S-SW 6,0 C 6,6 C 4,0 km/h (1 Bft)
07.10.2016 05:00 6,6 C 97 % 1016,9 hPa 0,0 l/m 0,9 km/h (0 Bft) W-SW 6,2 C 6,6 C 3,0 km/h (1 Bft)
07.10.2016 06:00 6,7 C 97 % 1016,9 hPa 0,3 l/m 0,6 km/h (0 Bft) W-NW 6,3 C 6,7 C 2,8 km/h (1 Bft)
07.10.2016 07:00 6,8 C 97 % 1017,1 hPa 0,3 l/m 0,9 km/h (0 Bft) W-NW 6,3 C 6,8 C 3,3 km/h (1 Bft)
07.10.2016 08:00 6,9 C 97 % 1017,2 hPa 0,0 l/m 1,1 km/h (1 Bft) W 6,4 C 6,9 C 3,9 km/h (1 Bft)
07.10.2016 09:00 7,2 C 97 % 1017,2 hPa 0,3 l/m 2,1 km/h (1 Bft) S-SW 6,7 C 7,2 C 6,0 km/h (2 Bft)
07.10.2016 10:00 8,0 C 95 % 1017,3 hPa 0,0 l/m 1,7 km/h (1 Bft) W-NW 7,2 C 8,0 C 3,9 km/h (1 Bft)
07.10.2016 11:00 8,2 C 94 % 1017,5 hPa 0,0 l/m 1,6 km/h (1 Bft) W-NW 7,3 C 8,2 C 3,5 km/h (1 Bft)
07.10.2016 12:00 8,6 C 91 % 1017,5 hPa 0,0 l/m 2,6 km/h (1 Bft) NW 7,3 C 8,6 C 7,0 km/h (2 Bft)
07.10.2016 13:00 10,7 C 79 % 1017,4 hPa 0,0 l/m 3,9 km/h (1 Bft) W 7,1 C 10,7 C 10,1 km/h (2 Bft)
07.10.2016 14:00 11,5 C 75 % 1017,3 hPa 0,0 l/m 3,3 km/h (1 Bft) W-NW 7,3 C 11,5 C 9,2 km/h (2 Bft)
07.10.2016 15:00 11,4 C 71 % 1017,3 hPa 0,0 l/m 2,7 km/h (1 Bft) NW 6,3 C 11,4 C 7,8 km/h (2 Bft)
07.10.2016 16:00 9,9 C 78 % 1017,5 hPa 0,0 l/m 1,9 km/h (1 Bft) W 6,2 C 9,9 C 5,8 km/h (2 Bft)
07.10.2016 17:00 9,5 C 80 % 1017,6 hPa 0,0 l/m 1,5 km/h (1 Bft) W-NW 6,3 C 9,5 C 4,2 km/h (1 Bft)
07.10.2016 18:00 9,1 C 83 % 1017,8 hPa 0,0 l/m 1,0 km/h (0 Bft) W-NW 6,3 C 9,1 C 3,7 km/h (1 Bft)
07.10.2016 19:00 8,6 C 84 % 1018,1 hPa 0,0 l/m 2,0 km/h (1 Bft) W-NW 6,0 C 8,6 C 5,3 km/h (1 Bft)
07.10.2016 20:00 8,3 C 86 % 1018,2 hPa 0,0 l/m 1,5 km/h (1 Bft) W 6,0 C 8,3 C 4,5 km/h (1 Bft)
07.10.2016 21:00 8,0 C 87 % 1018,3 hPa 0,0 l/m 0,3 km/h (0 Bft) W-SW 6,0 C 8,0 C 2,3 km/h (1 Bft)
07.10.2016 22:00 7,7 C 89 % 1018,4 hPa 0,0 l/m 1,1 km/h (1 Bft) NW 6,1 C 7,7 C 3,5 km/h (1 Bft)
07.10.2016 23:00 7,4 C 90 % 1018,5 hPa 0,0 l/m 1,1 km/h (1 Bft) NW 5,8 C 7,4 C 3,3 km/h (1 Bft)
08.10.2016 00:00 7,4 C 89 % 1018,4 hPa 0,0 l/m 1,0 km/h (0 Bft) NW 5,7 C 7,4 C 3,3 km/h (1 Bft)
08.10.2016 01:00 7,2 C 89 % 1018,3 hPa 0,0 l/m 1,1 km/h (0 Bft) W-SW 5,5 C 7,2 C 3,2 km/h (1 Bft)
08.10.2016 02:00 7,0 C 89 % 1018,4 hPa 0,0 l/m 1,0 km/h (0 Bft) S-SW 5,3 C 7,0 C 4,0 km/h (1 Bft)
08.10.2016 03:00 6,8 C 90 % 1018,2 hPa 0,0 l/m 0,0 km/h (0 Bft) SW 5,3 C 6,8 C 0,3 km/h (0 Bft)
08.10.2016 04:00 6,5 C 92 % 1017,9 hPa 0,0 l/m 0,0 km/h (0 Bft) SW 5,2 C 6,5 C 0,4 km/h (0 Bft)
08.10.2016 05:00 6,1 C 93 % 1018,0 hPa 0,0 l/m 0,0 km/h (0 Bft) SW 5,1 C 6,1 C 0,2 km/h (0 Bft)
08.10.2016 06:00 5,9 C 94 % 1018,0 hPa 0,0 l/m 0,0 km/h (0 Bft) N 4,9 C 5,9 C 0,1 km/h (0 Bft)
08.10.2016 07:00 5,7 C 94 % 1018,4 hPa 0,0 l/m 0,0 km/h (0 Bft) N 4,8 C 5,7 C 0,3 km/h (0 Bft)
08.10.2016 08:00 5,7 C 95 % 1019,0 hPa 0,0 l/m 0,2 km/h (0 Bft) SW 4,9 C 5,7 C 0,9 km/h (0 Bft)
08.10.2016 09:00 6,4 C 91 % 1019,4 hPa 0,0 l/m 0,2 km/h (0 Bft) SW 5,0 C 6,4 C 1,4 km/h (1 Bft)
08.10.2016 10:00 7,3 C 87 % 1019,7 hPa 0,0 l/m 0,6 km/h (0 Bft) SW 5,3 C 7,3 C 2,4 km/h (1 Bft)
08.10.2016 11:00 9,5 C 74 % 1019,8 hPa 0,0 l/m 1,8 km/h (1 Bft) S-SW 5,1 C 9,5 C 4,6 km/h (1 Bft)
08.10.2016 12:00 9,4 C 75 % 1020,0 hPa 0,0 l/m 2,2 km/h (1 Bft) NW 5,1 C 9,4 C 4,8 km/h (1 Bft)
08.10.2016 13:00 9,7 C 72 % 1020,2 hPa 0,0 l/m 2,0 km/h (1 Bft) NW 4,8 C 9,7 C 6,0 km/h (2 Bft)
08.10.2016 14:00 10,2 C 70 % 1020,1 hPa 0,0 l/m 1,6 km/h (1 Bft) S-SO 5,0 C 10,2 C 4,7 km/h (1 Bft)
08.10.2016 15:00 10,5 C 67 % 1020,4 hPa 0,0 l/m 2,2 km/h (1 Bft) NW 4,6 C 10,5 C 6,6 km/h (2 Bft)
08.10.2016 16:00 10,4 C 67 % 1020,7 hPa 0,0 l/m 1,4 km/h (1 Bft) W-NW 4,5 C 10,4 C 4,7 km/h (1 Bft)
08.10.2016 17:00 9,7 C 71 % 1021,1 hPa 0,0 l/m 0,9 km/h (0 Bft) W-NW 4,7 C 9,7 C 2,9 km/h (1 Bft)
08.10.2016 18:00 9,2 C 73 % 1021,4 hPa 0,0 l/m 0,2 km/h (0 Bft) W-NW 4,6 C 9,2 C 1,1 km/h (1 Bft)
08.10.2016 19:00 7,5 C 83 % 1021,9 hPa 0,0 l/m 0,0 km/h (0 Bft) W-NW 4,7 C 7,5 C 0,4 km/h (0 Bft)
08.10.2016 20:00 7,0 C 86 % 1022,3 hPa 0,0 l/m 0,5 km/h (0 Bft) W-NW 4,9 C 7,0 C 2,3 km/h (1 Bft)
08.10.2016 21:00 7,2 C 86 % 1022,3 hPa 0,0 l/m 0,8 km/h (0 Bft) SW 5,1 C 7,2 C 3,2 km/h (1 Bft)
08.10.2016 22:00 6,7 C 88 % 1022,6 hPa 0,0 l/m 1,2 km/h (1 Bft) W 4,9 C 6,7 C 3,7 km/h (1 Bft)
08.10.2016 23:00 6,5 C 90 % 1022,7 hPa 0,0 l/m 0,1 km/h (0 Bft) W 5,0 C 6,5 C 0,8 km/h (0 Bft)
09.10.2016 00:00 6,4 C 91 % 1022,5 hPa 0,0 l/m 0,1 km/h (0 Bft) W 5,0 C 6,4 C 1,1 km/h (1 Bft)
09.10.2016 01:00 6,3 C 91 % 1022,3 hPa 0,0 l/m 0,3 km/h (0 Bft) W 4,9 C 6,3 C 1,9 km/h (1 Bft)
09.10.2016 02:00 6,1 C 92 % 1022,4 hPa 0,0 l/m 0,2 km/h (0 Bft) W 5,0 C 6,1 C 1,5 km/h (1 Bft)
09.10.2016 03:00 6,3 C 92 % 1022,1 hPa 0,0 l/m 0,3 km/h (0 Bft) W 5,1 C 6,3 C 2,0 km/h (1 Bft)
09.10.2016 04:00 6,3 C 92 % 1021,8 hPa 0,0 l/m 1,0 km/h (0 Bft) W 5,1 C 6,3 C 3,5 km/h (1 Bft)
09.10.2016 05:00 6,0 C 93 % 1021,6 hPa 3,8 l/m 0,3 km/h (0 Bft) W-NW 5,1 C 6,0 C 1,8 km/h (1 Bft)
09.10.2016 06:00 5,7 C 95 % 1021,5 hPa 2,5 l/m 1,0 km/h (0 Bft) NW 4,9 C 5,7 C 3,7 km/h (1 Bft)
09.10.2016 07:00 5,2 C 95 % 1021,6 hPa 0,0 l/m 1,0 km/h (0 Bft) W 4,5 C 5,2 C 3,6 km/h (1 Bft)
09.10.2016 08:00 5,1 C 95 % 1021,8 hPa 0,3 l/m 0,5 km/h (0 Bft) W 4,4 C 5,1 C 2,3 km/h (1 Bft)
09.10.2016 09:00 5,4 C 96 % 1022,0 hPa 0,0 l/m 1,1 km/h (1 Bft) W 4,8 C 5,4 C 3,9 km/h (1 Bft)
09.10.2016 10:00 5,7 C 95 % 1022,2 hPa 0,0 l/m 2,1 km/h (1 Bft) S-SW 4,9 C 5,7 C 6,7 km/h (2 Bft)
09.10.2016 11:00 6,0 C 93 % 1022,4 hPa 0,0 l/m 2,0 km/h (1 Bft) W-NW 4,9 C 6,0 C 4,7 km/h (1 Bft)
09.10.2016 12:00 6,0 C 93 % 1022,6 hPa 0,0 l/m 1,6 km/h (1 Bft) W 4,9 C 6,0 C 4,8 km/h (1 Bft)
09.10.2016 13:00 6,7 C 91 % 1022,5 hPa 0,0 l/m 1,1 km/h (1 Bft) SW 5,3 C 6,7 C 3,6 km/h (1 Bft)
09.10.2016 14:00 6,6 C 92 % 1022,3 hPa 0,0 l/m 1,6 km/h (1 Bft) O-NO 5,4 C 6,6 C 3,6 km/h (1 Bft)
09.10.2016 15:00 6,8 C 91 % 1022,3 hPa 0,0 l/m 2,1 km/h (1 Bft) O-NO 5,5 C 6,8 C 4,7 km/h (1 Bft)
09.10.2016 16:00 7,0 C 91 % 1022,4 hPa 0,3 l/m 1,5 km/h (1 Bft) O 5,7 C 7,0 C 4,0 km/h (1 Bft)
09.10.2016 17:00 6,1 C 91 % 1022,6 hPa 0,5 l/m 2,5 km/h (1 Bft) O 4,7 C 6,1 C 5,4 km/h (1 Bft)
09.10.2016 18:00 5,6 C 93 % 1022,9 hPa 0,0 l/m 1,0 km/h (0 Bft) NO 4,5 C 5,6 C 2,7 km/h (1 Bft)
09.10.2016 19:00 5,2 C 94 % 1023,7 hPa 3,0 l/m 1,2 km/h (1 Bft) S 4,3 C 5,2 C 4,1 km/h (1 Bft)
09.10.2016 20:00 4,7 C 95 % 1024,1 hPa 0,3 l/m 0,3 km/h (0 Bft) SO 4,0 C 4,7 C 1,5 km/h (1 Bft)
09.10.2016 21:00 4,6 C 96 % 1024,3 hPa 0,0 l/m 0,0 km/h (0 Bft) SO 4,0 C 4,6 C 0,9 km/h (0 Bft)
09.10.2016 22:00 4,5 C 96 % 1024,3 hPa 0,0 l/m 0,0 km/h (0 Bft) SO 4,0 C 4,5 C 0,7 km/h (0 Bft)
09.10.2016 23:00 4,3 C 96 % 1024,5 hPa 0,0 l/m 0,0 km/h (0 Bft) SO 3,7 C 4,3 C 0,4 km/h (0 Bft)
Min-Datum _ 06.10.16 05.10.16 07.10.16 - 09.10.16 - 06.10.16 06.10.16 09.10.16
_ Min-Zeit 02:30 17:05 05:15 - 23:05 - 02:20 02:30 23:05
Minimum _ 0,6 C 47 % 1016,8 hPa - 0,0 km/h (0 Bft) - -0,6 C 0,6 C 0,0 km/h (0 Bft)
Max-Datum _ 03.10.16 09.10.16 04.10.16 09.10.16 05.10.16 - 04.10.16 03.10.16 05.10.16
_ Max-Zeit 14:30 23:46 21:10 05:50 11:57 - 13:40 14:30 11:57
Maximum _ 15,6 C 97 % 1029,4 hPa 3,8 l/m 14,5 km/h
S-SW (3 Bft)
- 8,6 C 15,6 C 30,6 km/h
W (5 Bft)
Durchschnitt _ 7,6 C 85 % 1022,8 hPa #12,2 l/m 1,9 km/h (1 Bft) SW 5,2 C 7,6 C 5,5 km/h (2 Bft)